sensor_id;sensor_type;location;lat;lon;timestamp;temperature;humidity
11474;DHT22;5793;52.238;13.438;2023-04-23T00:00:52;14.10;99.90
11474;DHT22;5793;52.238;13.438;2023-04-23T00:03:24;14.00;99.90
11474;DHT22;5793;52.238;13.438;2023-04-23T00:05:53;14.10;99.90
11474;DHT22;5793;52.238;13.438;2023-04-23T00:08:26;14.20;99.90
11474;DHT22;5793;52.238;13.438;2023-04-23T00:10:55;14.20;99.90
11474;DHT22;5793;52.238;13.438;2023-04-23T00:13:24;14.20;99.90
11474;DHT22;5793;52.238;13.438;2023-04-23T00:15:52;14.20;99.90
11474;DHT22;5793;52.238;13.438;2023-04-23T00:18:20;14.20;99.90
11474;DHT22;5793;52.238;13.438;2023-04-23T00:20:48;14.10;99.90
11474;DHT22;5793;52.238;13.438;2023-04-23T00:23:16;14.00;99.90
11474;DHT22;5793;52.238;13.438;2023-04-23T00:25:44;14.10;99.90
11474;DHT22;5793;52.238;13.438;2023-04-23T00:28:13;14.10;99.90
11474;DHT22;5793;52.238;13.438;2023-04-23T00:30:41;14.10;99.90
11474;DHT22;5793;52.238;13.438;2023-04-23T00:33:09;14.10;99.90
11474;DHT22;5793;52.238;13.438;2023-04-23T00:35:37;14.10;99.90
11474;DHT22;5793;52.238;13.438;2023-04-23T00:38:05;14.00;99.90
11474;DHT22;5793;52.238;13.438;2023-04-23T00:40:33;14.10;99.90
11474;DHT22;5793;52.238;13.438;2023-04-23T00:43:01;14.20;99.90
11474;DHT22;5793;52.238;13.438;2023-04-23T00:45:30;14.20;99.90
11474;DHT22;5793;52.238;13.438;2023-04-23T00:47:58;14.20;99.90
11474;DHT22;5793;52.238;13.438;2023-04-23T00:50:26;14.30;99.90
11474;DHT22;5793;52.238;13.438;2023-04-23T00:52:54;14.20;99.90
11474;DHT22;5793;52.238;13.438;2023-04-23T00:55:22;14.10;99.90
11474;DHT22;5793;52.238;13.438;2023-04-23T00:57:50;14.00;99.90
11474;DHT22;5793;52.238;13.438;2023-04-23T01:00:18;14.00;99.90
11474;DHT22;5793;52.238;13.438;2023-04-23T01:02:48;13.80;99.90
11474;DHT22;5793;52.238;13.438;2023-04-23T01:05:19;13.80;99.90
11474;DHT22;5793;52.238;13.438;2023-04-23T01:07:47;13.80;99.90
11474;DHT22;5793;52.238;13.438;2023-04-23T01:10:16;13.80;99.90
11474;DHT22;5793;52.238;13.438;2023-04-23T01:12:44;13.80;99.90
11474;DHT22;5793;52.238;13.438;2023-04-23T01:15:11;13.80;99.90
11474;DHT22;5793;52.238;13.438;2023-04-23T01:17:39;13.80;99.90
11474;DHT22;5793;52.238;13.438;2023-04-23T01:20:10;13.80;99.90
11474;DHT22;5793;52.238;13.438;2023-04-23T01:22:39;13.80;99.90
11474;DHT22;5793;52.238;13.438;2023-04-23T01:25:08;13.70;99.90
11474;DHT22;5793;52.238;13.438;2023-04-23T01:27:36;13.60;99.90
11474;DHT22;5793;52.238;13.438;2023-04-23T01:30:05;13.70;99.90
11474;DHT22;5793;52.238;13.438;2023-04-23T01:32:34;13.70;99.90
11474;DHT22;5793;52.238;13.438;2023-04-23T01:35:03;13.60;99.90
11474;DHT22;5793;52.238;13.438;2023-04-23T01:37:31;13.50;99.90
11474;DHT22;5793;52.238;13.438;2023-04-23T01:40:00;13.50;99.90
11474;DHT22;5793;52.238;13.438;2023-04-23T01:42:28;13.40;99.90
11474;DHT22;5793;52.238;13.438;2023-04-23T01:44:56;13.30;99.90
11474;DHT22;5793;52.238;13.438;2023-04-23T01:47:24;13.30;99.90
11474;DHT22;5793;52.238;13.438;2023-04-23T01:49:52;13.30;99.90
11474;DHT22;5793;52.238;13.438;2023-04-23T01:52:20;13.30;99.90
11474;DHT22;5793;52.238;13.438;2023-04-23T01:54:48;13.20;99.90
11474;DHT22;5793;52.238;13.438;2023-04-23T01:57:17;13.10;99.90
11474;DHT22;5793;52.238;13.438;2023-04-23T01:59:49;13.10;99.90
11474;DHT22;5793;52.238;13.438;2023-04-23T02:02:17;13.00;99.90
11474;DHT22;5793;52.238;13.438;2023-04-23T02:04:46;13.10;99.90
11474;DHT22;5793;52.238;13.438;2023-04-23T02:07:15;13.10;99.90
11474;DHT22;5793;52.238;13.438;2023-04-23T02:09:43;13.10;99.90
11474;DHT22;5793;52.238;13.438;2023-04-23T02:12:11;13.10;99.90
11474;DHT22;5793;52.238;13.438;2023-04-23T02:14:40;13.10;99.90
11474;DHT22;5793;52.238;13.438;2023-04-23T02:17:08;13.10;99.90
11474;DHT22;5793;52.238;13.438;2023-04-23T02:19:36;13.10;99.90
11474;DHT22;5793;52.238;13.438;2023-04-23T02:22:04;13.10;99.90
11474;DHT22;5793;52.238;13.438;2023-04-23T02:24:33;13.10;99.90
11474;DHT22;5793;52.238;13.438;2023-04-23T02:27:00;13.10;99.90
11474;DHT22;5793;52.238;13.438;2023-04-23T02:29:29;13.00;99.90
11474;DHT22;5793;52.238;13.438;2023-04-23T02:31:58;13.00;99.90
11474;DHT22;5793;52.238;13.438;2023-04-23T02:34:26;13.10;99.90
11474;DHT22;5793;52.238;13.438;2023-04-23T02:36:53;13.00;99.90
11474;DHT22;5793;52.238;13.438;2023-04-23T02:39:21;13.00;99.90
11474;DHT22;5793;52.238;13.438;2023-04-23T02:41:50;12.80;99.90
11474;DHT22;5793;52.238;13.438;2023-04-23T02:44:18;12.80;99.90
11474;DHT22;5793;52.238;13.438;2023-04-23T02:46:45;12.70;99.90
11474;DHT22;5793;52.238;13.438;2023-04-23T02:49:15;12.60;99.90
11474;DHT22;5793;52.238;13.438;2023-04-23T02:51:42;12.40;99.90
11474;DHT22;5793;52.238;13.438;2023-04-23T02:54:10;12.30;99.90
11474;DHT22;5793;52.238;13.438;2023-04-23T02:56:38;12.20;99.90
11474;DHT22;5793;52.238;13.438;2023-04-23T02:59:07;12.20;99.90
11474;DHT22;5793;52.238;13.438;2023-04-23T03:01:35;12.20;99.90
11474;DHT22;5793;52.238;13.438;2023-04-23T03:04:03;12.20;99.90
11474;DHT22;5793;52.238;13.438;2023-04-23T03:06:32;12.20;99.90
11474;DHT22;5793;52.238;13.438;2023-04-23T03:09:01;11.90;99.90
11474;DHT22;5793;52.238;13.438;2023-04-23T03:11:29;11.80;99.90
11474;DHT22;5793;52.238;13.438;2023-04-23T03:13:57;11.60;99.90
11474;DHT22;5793;52.238;13.438;2023-04-23T03:16:26;11.60;99.90
11474;DHT22;5793;52.238;13.438;2023-04-23T03:18:55;11.60;99.90
11474;DHT22;5793;52.238;13.438;2023-04-23T03:21:22;11.70;99.90
11474;DHT22;5793;52.238;13.438;2023-04-23T03:23:51;11.70;99.90
11474;DHT22;5793;52.238;13.438;2023-04-23T03:26:19;11.60;99.90
11474;DHT22;5793;52.238;13.438;2023-04-23T03:28:47;11.50;99.90
11474;DHT22;5793;52.238;13.438;2023-04-23T03:31:15;11.60;99.90
11474;DHT22;5793;52.238;13.438;2023-04-23T03:33:43;11.70;99.90
11474;DHT22;5793;52.238;13.438;2023-04-23T03:36:10;11.80;99.90
11474;DHT22;5793;52.238;13.438;2023-04-23T03:38:38;11.70;99.90
11474;DHT22;5793;52.238;13.438;2023-04-23T03:41:07;11.70;99.90
11474;DHT22;5793;52.238;13.438;2023-04-23T03:43:35;11.70;99.90
11474;DHT22;5793;52.238;13.438;2023-04-23T03:46:03;11.80;99.90
11474;DHT22;5793;52.238;13.438;2023-04-23T03:48:32;11.80;99.90
11474;DHT22;5793;52.238;13.438;2023-04-23T03:51:00;11.90;99.90
11474;DHT22;5793;52.238;13.438;2023-04-23T03:53:27;11.90;99.90
11474;DHT22;5793;52.238;13.438;2023-04-23T03:55:55;11.80;99.90
11474;DHT22;5793;52.238;13.438;2023-04-23T03:58:24;11.90;99.90
11474;DHT22;5793;52.238;13.438;2023-04-23T04:00:52;11.90;99.90
11474;DHT22;5793;52.238;13.438;2023-04-23T04:03:20;12.00;99.90
11474;DHT22;5793;52.238;13.438;2023-04-23T04:05:48;12.00;99.90
11474;DHT22;5793;52.238;13.438;2023-04-23T04:08:16;12.10;99.90
11474;DHT22;5793;52.238;13.438;2023-04-23T04:10:43;12.00;99.90
11474;DHT22;5793;52.238;13.438;2023-04-23T04:13:11;12.00;99.90
11474;DHT22;5793;52.238;13.438;2023-04-23T04:15:42;12.00;99.90
11474;DHT22;5793;52.238;13.438;2023-04-23T04:18:10;12.00;99.90
11474;DHT22;5793;52.238;13.438;2023-04-23T04:20:38;12.10;99.90
11474;DHT22;5793;52.238;13.438;2023-04-23T04:23:09;12.00;99.90
11474;DHT22;5793;52.238;13.438;2023-04-23T04:25:36;12.10;99.90
11474;DHT22;5793;52.238;13.438;2023-04-23T04:28:06;12.10;99.90
11474;DHT22;5793;52.238;13.438;2023-04-23T04:30:34;12.20;99.90
11474;DHT22;5793;52.238;13.438;2023-04-23T04:33:05;12.20;99.90
11474;DHT22;5793;52.238;13.438;2023-04-23T04:35:33;12.30;99.90
11474;DHT22;5793;52.238;13.438;2023-04-23T04:38:01;12.40;99.90
11474;DHT22;5793;52.238;13.438;2023-04-23T04:40:28;12.50;99.90
11474;DHT22;5793;52.238;13.438;2023-04-23T04:42:57;12.60;99.90
11474;DHT22;5793;52.238;13.438;2023-04-23T04:45:25;12.80;99.90
11474;DHT22;5793;52.238;13.438;2023-04-23T04:47:53;12.90;99.90
11474;DHT22;5793;52.238;13.438;2023-04-23T04:50:22;13.00;99.90
11474;DHT22;5793;52.238;13.438;2023-04-23T04:52:50;13.00;99.90
11474;DHT22;5793;52.238;13.438;2023-04-23T04:55:18;13.00;99.90
11474;DHT22;5793;52.238;13.438;2023-04-23T04:57:46;13.00;99.90
11474;DHT22;5793;52.238;13.438;2023-04-23T05:00:22;13.10;99.90
11474;DHT22;5793;52.238;13.438;2023-04-23T05:02:52;13.10;99.90
11474;DHT22;5793;52.238;13.438;2023-04-23T05:05:22;13.10;99.90
11474;DHT22;5793;52.238;13.438;2023-04-23T05:07:51;13.10;99.90
11474;DHT22;5793;52.238;13.438;2023-04-23T05:10:20;13.10;99.90
11474;DHT22;5793;52.238;13.438;2023-04-23T05:12:48;13.00;99.90
11474;DHT22;5793;52.238;13.438;2023-04-23T05:15:17;13.00;99.90
11474;DHT22;5793;52.238;13.438;2023-04-23T05:17:45;13.00;99.90
11474;DHT22;5793;52.238;13.438;2023-04-23T05:20:13;13.00;99.90
11474;DHT22;5793;52.238;13.438;2023-04-23T05:22:42;12.90;99.90
11474;DHT22;5793;52.238;13.438;2023-04-23T05:25:10;12.80;99.90
11474;DHT22;5793;52.238;13.438;2023-04-23T05:27:39;12.90;99.90
11474;DHT22;5793;52.238;13.438;2023-04-23T05:30:09;12.90;99.90
11474;DHT22;5793;52.238;13.438;2023-04-23T05:32:37;12.90;99.90
11474;DHT22;5793;52.238;13.438;2023-04-23T05:35:06;12.90;99.90
11474;DHT22;5793;52.238;13.438;2023-04-23T05:37:34;12.90;99.90
11474;DHT22;5793;52.238;13.438;2023-04-23T05:40:03;12.90;99.90
11474;DHT22;5793;52.238;13.438;2023-04-23T05:42:33;13.00;99.90
11474;DHT22;5793;52.238;13.438;2023-04-23T05:45:01;12.90;99.90
11474;DHT22;5793;52.238;13.438;2023-04-23T05:47:29;13.00;99.90
11474;DHT22;5793;52.238;13.438;2023-04-23T05:49:57;13.00;99.90
11474;DHT22;5793;52.238;13.438;2023-04-23T05:52:25;13.10;99.90
11474;DHT22;5793;52.238;13.438;2023-04-23T05:54:52;13.20;99.90
11474;DHT22;5793;52.238;13.438;2023-04-23T05:57:21;13.50;99.90
11474;DHT22;5793;52.238;13.438;2023-04-23T05:59:49;13.70;99.90
11474;DHT22;5793;52.238;13.438;2023-04-23T06:02:17;13.80;99.90
11474;DHT22;5793;52.238;13.438;2023-04-23T06:04:47;13.80;99.90
11474;DHT22;5793;52.238;13.438;2023-04-23T06:07:15;13.90;99.90
11474;DHT22;5793;52.238;13.438;2023-04-23T06:09:43;13.90;99.90
11474;DHT22;5793;52.238;13.438;2023-04-23T06:12:11;14.00;99.90
11474;DHT22;5793;52.238;13.438;2023-04-23T06:14:40;14.10;99.90
11474;DHT22;5793;52.238;13.438;2023-04-23T06:17:08;14.20;99.90
11474;DHT22;5793;52.238;13.438;2023-04-23T06:19:36;14.40;99.90
11474;DHT22;5793;52.238;13.438;2023-04-23T06:22:04;14.30;99.90
11474;DHT22;5793;52.238;13.438;2023-04-23T06:24:33;14.40;99.90
11474;DHT22;5793;52.238;13.438;2023-04-23T06:27:00;14.50;99.90
11474;DHT22;5793;52.238;13.438;2023-04-23T06:29:28;14.70;99.90
11474;DHT22;5793;52.238;13.438;2023-04-23T06:32:00;14.90;99.90
11474;DHT22;5793;52.238;13.438;2023-04-23T06:34:28;15.00;99.90
11474;DHT22;5793;52.238;13.438;2023-04-23T06:36:56;15.10;99.90
11474;DHT22;5793;52.238;13.438;2023-04-23T06:39:24;15.10;99.90
11474;DHT22;5793;52.238;13.438;2023-04-23T06:41:52;15.20;99.90
11474;DHT22;5793;52.238;13.438;2023-04-23T06:44:20;15.30;99.90
11474;DHT22;5793;52.238;13.438;2023-04-23T06:46:47;15.20;99.90
11474;DHT22;5793;52.238;13.438;2023-04-23T06:49:17;15.10;99.90
11474;DHT22;5793;52.238;13.438;2023-04-23T06:51:45;15.00;99.90
11474;DHT22;5793;52.238;13.438;2023-04-23T06:54:13;15.00;99.90
11474;DHT22;5793;52.238;13.438;2023-04-23T06:56:41;14.80;99.90
11474;DHT22;5793;52.238;13.438;2023-04-23T06:59:09;14.70;99.90
11474;DHT22;5793;52.238;13.438;2023-04-23T07:01:37;14.60;99.90
11474;DHT22;5793;52.238;13.438;2023-04-23T07:04:04;14.40;99.90
11474;DHT22;5793;52.238;13.438;2023-04-23T07:06:34;14.20;99.90
11474;DHT22;5793;52.238;13.438;2023-04-23T07:09:02;14.20;99.90
11474;DHT22;5793;52.238;13.438;2023-04-23T07:11:30;14.10;99.90
11474;DHT22;5793;52.238;13.438;2023-04-23T07:14:00;13.90;99.90
11474;DHT22;5793;52.238;13.438;2023-04-23T07:16:28;13.80;99.90
11474;DHT22;5793;52.238;13.438;2023-04-23T07:18:59;13.60;99.90
11474;DHT22;5793;52.238;13.438;2023-04-23T07:21:28;13.40;99.90
11474;DHT22;5793;52.238;13.438;2023-04-23T07:23:57;13.30;99.90
11474;DHT22;5793;52.238;13.438;2023-04-23T07:26:26;13.20;99.90
11474;DHT22;5793;52.238;13.438;2023-04-23T07:28:54;13.10;99.90
11474;DHT22;5793;52.238;13.438;2023-04-23T07:31:22;13.10;99.90
11474;DHT22;5793;52.238;13.438;2023-04-23T07:33:50;13.10;99.90
11474;DHT22;5793;52.238;13.438;2023-04-23T07:36:18;13.20;99.90
11474;DHT22;5793;52.238;13.438;2023-04-23T07:38:45;13.20;99.90
11474;DHT22;5793;52.238;13.438;2023-04-23T07:41:15;13.40;99.90
11474;DHT22;5793;52.238;13.438;2023-04-23T07:43:42;13.30;99.90
11474;DHT22;5793;52.238;13.438;2023-04-23T07:46:10;13.40;99.90
11474;DHT22;5793;52.238;13.438;2023-04-23T07:48:38;13.40;99.90
11474;DHT22;5793;52.238;13.438;2023-04-23T07:51:07;13.60;99.90
11474;DHT22;5793;52.238;13.438;2023-04-23T07:53:35;13.70;99.90
11474;DHT22;5793;52.238;13.438;2023-04-23T07:56:02;13.60;99.90
11474;DHT22;5793;52.238;13.438;2023-04-23T07:58:32;13.60;99.90
11474;DHT22;5793;52.238;13.438;2023-04-23T08:01:01;13.70;99.90
11474;DHT22;5793;52.238;13.438;2023-04-23T08:03:29;13.60;99.90
11474;DHT22;5793;52.238;13.438;2023-04-23T08:05:57;13.70;99.90
11474;DHT22;5793;52.238;13.438;2023-04-23T08:08:25;13.80;99.90
11474;DHT22;5793;52.238;13.438;2023-04-23T08:10:52;14.00;99.90
11474;DHT22;5793;52.238;13.438;2023-04-23T08:13:20;14.20;99.90
11474;DHT22;5793;52.238;13.438;2023-04-23T08:15:49;14.30;99.90
11474;DHT22;5793;52.238;13.438;2023-04-23T08:18:17;14.30;99.90
11474;DHT22;5793;52.238;13.438;2023-04-23T08:20:45;14.40;99.90
11474;DHT22;5793;52.238;13.438;2023-04-23T08:23:13;14.50;99.90
11474;DHT22;5793;52.238;13.438;2023-04-23T08:25:41;14.70;99.90
11474;DHT22;5793;52.238;13.438;2023-04-23T08:28:08;14.90;99.90
11474;DHT22;5793;52.238;13.438;2023-04-23T08:30:36;15.00;99.90
11474;DHT22;5793;52.238;13.438;2023-04-23T08:33:06;15.00;99.90
11474;DHT22;5793;52.238;13.438;2023-04-23T08:35:34;15.40;99.90
11474;DHT22;5793;52.238;13.438;2023-04-23T08:38:02;15.80;99.90
11474;DHT22;5793;52.238;13.438;2023-04-23T08:40:31;16.80;99.90
11474;DHT22;5793;52.238;13.438;2023-04-23T08:43:02;17.60;99.90
11474;DHT22;5793;52.238;13.438;2023-04-23T08:45:30;17.60;99.90
11474;DHT22;5793;52.238;13.438;2023-04-23T08:47:59;17.50;99.90
11474;DHT22;5793;52.238;13.438;2023-04-23T08:50:29;17.30;99.90
11474;DHT22;5793;52.238;13.438;2023-04-23T08:52:58;17.00;99.90
11474;DHT22;5793;52.238;13.438;2023-04-23T08:55:26;16.90;99.90
11474;DHT22;5793;52.238;13.438;2023-04-23T08:57:53;16.80;99.90
11474;DHT22;5793;52.238;13.438;2023-04-23T09:00:22;16.90;99.90
11474;DHT22;5793;52.238;13.438;2023-04-23T09:02:52;17.90;99.90
11474;DHT22;5793;52.238;13.438;2023-04-23T09:05:20;18.80;99.90
11474;DHT22;5793;52.238;13.438;2023-04-23T09:07:49;19.60;99.90
11474;DHT22;5793;52.238;13.438;2023-04-23T09:10:18;19.60;99.90
11474;DHT22;5793;52.238;13.438;2023-04-23T09:12:46;19.50;99.90
11474;DHT22;5793;52.238;13.438;2023-04-23T09:15:13;18.70;99.90
11474;DHT22;5793;52.238;13.438;2023-04-23T09:17:43;18.10;99.90
11474;DHT22;5793;52.238;13.438;2023-04-23T09:20:13;17.70;99.90
11474;DHT22;5793;52.238;13.438;2023-04-23T09:22:41;17.50;99.90
11474;DHT22;5793;52.238;13.438;2023-04-23T09:25:15;17.40;99.90
11474;DHT22;5793;52.238;13.438;2023-04-23T09:27:44;17.30;99.90
11474;DHT22;5793;52.238;13.438;2023-04-23T09:30:13;17.00;99.90
11474;DHT22;5793;52.238;13.438;2023-04-23T09:32:42;16.40;99.90
11474;DHT22;5793;52.238;13.438;2023-04-23T09:35:13;16.00;99.90
11474;DHT22;5793;52.238;13.438;2023-04-23T09:37:41;15.60;99.90
11474;DHT22;5793;52.238;13.438;2023-04-23T09:40:14;15.40;99.90
11474;DHT22;5793;52.238;13.438;2023-04-23T09:42:46;15.10;99.90
11474;DHT22;5793;52.238;13.438;2023-04-23T09:45:15;14.90;99.90
11474;DHT22;5793;52.238;13.438;2023-04-23T09:47:48;14.50;99.90
11474;DHT22;5793;52.238;13.438;2023-04-23T09:50:17;14.30;99.90
11474;DHT22;5793;52.238;13.438;2023-04-23T09:52:53;14.20;99.90
11474;DHT22;5793;52.238;13.438;2023-04-23T09:55:28;14.30;99.90
11474;DHT22;5793;52.238;13.438;2023-04-23T09:57:57;14.40;99.90
11474;DHT22;5793;52.238;13.438;2023-04-23T10:00:25;14.50;99.90
11474;DHT22;5793;52.238;13.438;2023-04-23T10:02:58;14.50;99.90
11474;DHT22;5793;52.238;13.438;2023-04-23T10:05:27;14.50;99.90
11474;DHT22;5793;52.238;13.438;2023-04-23T10:08:06;14.60;99.90
11474;DHT22;5793;52.238;13.438;2023-04-23T10:10:39;14.30;99.90
11474;DHT22;5793;52.238;13.438;2023-04-23T10:13:25;14.40;99.90
11474;DHT22;5793;52.238;13.438;2023-04-23T10:15:54;14.50;99.90
11474;DHT22;5793;52.238;13.438;2023-04-23T10:18:40;14.70;99.90
11474;DHT22;5793;52.238;13.438;2023-04-23T10:21:08;15.20;99.90
11474;DHT22;5793;52.238;13.438;2023-04-23T10:23:37;15.60;99.90
11474;DHT22;5793;52.238;13.438;2023-04-23T10:26:08;15.70;99.90
11474;DHT22;5793;52.238;13.438;2023-04-23T10:28:38;15.70;99.90
11474;DHT22;5793;52.238;13.438;2023-04-23T10:31:07;15.40;99.90
11474;DHT22;5793;52.238;13.438;2023-04-23T10:33:36;15.10;99.90
11474;DHT22;5793;52.238;13.438;2023-04-23T10:36:22;14.80;99.90
11474;DHT22;5793;52.238;13.438;2023-04-23T10:38:51;14.50;99.90
11474;DHT22;5793;52.238;13.438;2023-04-23T10:41:33;14.40;99.90
11474;DHT22;5793;52.238;13.438;2023-04-23T10:44:02;14.40;99.90
11474;DHT22;5793;52.238;13.438;2023-04-23T10:46:31;14.50;99.90
11474;DHT22;5793;52.238;13.438;2023-04-23T10:49:06;14.50;99.90
11474;DHT22;5793;52.238;13.438;2023-04-23T10:51:34;14.70;99.90
11474;DHT22;5793;52.238;13.438;2023-04-23T10:54:06;14.90;99.90
11474;DHT22;5793;52.238;13.438;2023-04-23T10:56:38;15.00;99.90
11474;DHT22;5793;52.238;13.438;2023-04-23T10:59:06;15.10;99.90
11474;DHT22;5793;52.238;13.438;2023-04-23T11:01:35;15.00;99.90
11474;DHT22;5793;52.238;13.438;2023-04-23T11:04:22;14.80;99.90
11474;DHT22;5793;52.238;13.438;2023-04-23T11:06:52;14.80;99.90
11474;DHT22;5793;52.238;13.438;2023-04-23T11:09:29;14.90;99.90
11474;DHT22;5793;52.238;13.438;2023-04-23T11:11:58;15.00;99.90
11474;DHT22;5793;52.238;13.438;2023-04-23T11:14:41;14.80;99.90
11474;DHT22;5793;52.238;13.438;2023-04-23T11:17:10;15.00;99.90
11474;DHT22;5793;52.238;13.438;2023-04-23T11:19:39;15.10;99.90
11474;DHT22;5793;52.238;13.438;2023-04-23T11:22:13;15.20;99.90
11474;DHT22;5793;52.238;13.438;2023-04-23T11:24:43;15.80;99.90
11474;DHT22;5793;52.238;13.438;2023-04-23T11:27:17;16.50;99.90
11474;DHT22;5793;52.238;13.438;2023-04-23T11:29:46;16.80;99.90
11474;DHT22;5793;52.238;13.438;2023-04-23T11:32:15;16.90;99.90
11474;DHT22;5793;52.238;13.438;2023-04-23T11:34:44;17.10;99.90
11474;DHT22;5793;52.238;13.438;2023-04-23T11:37:14;17.20;99.90
11474;DHT22;5793;52.238;13.438;2023-04-23T11:39:44;17.40;99.90
11474;DHT22;5793;52.238;13.438;2023-04-23T11:42:18;17.60;99.90
11474;DHT22;5793;52.238;13.438;2023-04-23T11:44:46;17.20;99.90
11474;DHT22;5793;52.238;13.438;2023-04-23T11:47:15;16.90;99.90
11474;DHT22;5793;52.238;13.438;2023-04-23T11:49:44;16.80;99.90
11474;DHT22;5793;52.238;13.438;2023-04-23T11:52:13;16.50;99.90
11474;DHT22;5793;52.238;13.438;2023-04-23T11:54:41;16.20;99.90
11474;DHT22;5793;52.238;13.438;2023-04-23T11:57:09;15.90;99.90
11474;DHT22;5793;52.238;13.438;2023-04-23T11:59:38;15.50;99.90
11474;DHT22;5793;52.238;13.438;2023-04-23T12:02:07;15.40;99.90
11474;DHT22;5793;52.238;13.438;2023-04-23T12:04:34;15.20;99.90
11474;DHT22;5793;52.238;13.438;2023-04-23T12:07:06;15.00;99.90
11474;DHT22;5793;52.238;13.438;2023-04-23T12:09:48;14.40;99.90
11474;DHT22;5793;52.238;13.438;2023-04-23T12:12:16;14.10;99.90
11474;DHT22;5793;52.238;13.438;2023-04-23T12:14:45;13.90;99.90
11474;DHT22;5793;52.238;13.438;2023-04-23T12:17:13;13.80;99.90
11474;DHT22;5793;52.238;13.438;2023-04-23T12:19:42;13.70;99.90
11474;DHT22;5793;52.238;13.438;2023-04-23T12:22:11;13.80;99.90
11474;DHT22;5793;52.238;13.438;2023-04-23T12:24:46;14.10;99.90
11474;DHT22;5793;52.238;13.438;2023-04-23T12:27:14;14.50;99.90
11474;DHT22;5793;52.238;13.438;2023-04-23T12:29:47;15.00;99.90
11474;DHT22;5793;52.238;13.438;2023-04-23T12:32:16;15.30;99.90
11474;DHT22;5793;52.238;13.438;2023-04-23T12:34:50;15.80;99.90
11474;DHT22;5793;52.238;13.438;2023-04-23T12:37:23;16.50;99.90
11474;DHT22;5793;52.238;13.438;2023-04-23T12:39:52;16.60;99.90
11474;DHT22;5793;52.238;13.438;2023-04-23T12:42:22;16.50;99.90
11474;DHT22;5793;52.238;13.438;2023-04-23T12:44:52;16.10;99.90
11474;DHT22;5793;52.238;13.438;2023-04-23T12:47:21;16.30;99.90
11474;DHT22;5793;52.238;13.438;2023-04-23T12:49:49;16.50;99.90
11474;DHT22;5793;52.238;13.438;2023-04-23T12:52:19;16.90;99.90
11474;DHT22;5793;52.238;13.438;2023-04-23T12:54:48;17.40;99.90
11474;DHT22;5793;52.238;13.438;2023-04-23T12:57:17;17.50;99.90
11474;DHT22;5793;52.238;13.438;2023-04-23T12:59:49;17.70;99.90
11474;DHT22;5793;52.238;13.438;2023-04-23T13:02:18;18.10;99.90
11474;DHT22;5793;52.238;13.438;2023-04-23T13:04:46;18.30;99.90
11474;DHT22;5793;52.238;13.438;2023-04-23T13:07:14;18.00;99.90
11474;DHT22;5793;52.238;13.438;2023-04-23T13:09:42;17.90;99.90
11474;DHT22;5793;52.238;13.438;2023-04-23T13:12:10;17.70;99.90
11474;DHT22;5793;52.238;13.438;2023-04-23T13:14:38;17.40;99.90
11474;DHT22;5793;52.238;13.438;2023-04-23T13:17:06;17.50;99.90
11474;DHT22;5793;52.238;13.438;2023-04-23T13:19:35;17.50;99.90
11474;DHT22;5793;52.238;13.438;2023-04-23T13:22:05;17.60;99.90
11474;DHT22;5793;52.238;13.438;2023-04-23T13:24:33;17.60;99.90
11474;DHT22;5793;52.238;13.438;2023-04-23T13:27:01;17.60;99.90
11474;DHT22;5793;52.238;13.438;2023-04-23T13:29:29;17.70;99.90
11474;DHT22;5793;52.238;13.438;2023-04-23T13:31:57;17.70;99.90
11474;DHT22;5793;52.238;13.438;2023-04-23T13:34:25;17.60;99.90
11474;DHT22;5793;52.238;13.438;2023-04-23T13:36:54;17.80;99.90
11474;DHT22;5793;52.238;13.438;2023-04-23T13:39:22;18.20;99.90
11474;DHT22;5793;52.238;13.438;2023-04-23T13:41:50;18.40;99.90
11474;DHT22;5793;52.238;13.438;2023-04-23T13:44:34;18.30;99.90
11474;DHT22;5793;52.238;13.438;2023-04-23T13:47:02;18.00;99.90
11474;DHT22;5793;52.238;13.438;2023-04-23T13:49:30;17.60;99.90
11474;DHT22;5793;52.238;13.438;2023-04-23T13:51:59;17.80;99.90
11474;DHT22;5793;52.238;13.438;2023-04-23T13:54:32;18.00;99.90
11474;DHT22;5793;52.238;13.438;2023-04-23T13:57:01;17.80;99.90
11474;DHT22;5793;52.238;13.438;2023-04-23T13:59:29;17.70;99.90
11474;DHT22;5793;52.238;13.438;2023-04-23T14:01:56;17.40;99.90
11474;DHT22;5793;52.238;13.438;2023-04-23T14:04:24;17.40;99.90
11474;DHT22;5793;52.238;13.438;2023-04-23T14:06:52;17.60;99.90
11474;DHT22;5793;52.238;13.438;2023-04-23T14:09:21;17.70;99.90
11474;DHT22;5793;52.238;13.438;2023-04-23T14:11:50;17.70;99.90
11474;DHT22;5793;52.238;13.438;2023-04-23T14:14:18;17.70;99.90
11474;DHT22;5793;52.238;13.438;2023-04-23T14:16:46;17.50;99.90
11474;DHT22;5793;52.238;13.438;2023-04-23T14:19:14;17.30;99.90
11474;DHT22;5793;52.238;13.438;2023-04-23T14:21:43;17.40;99.90
11474;DHT22;5793;52.238;13.438;2023-04-23T14:24:16;17.30;99.90
11474;DHT22;5793;52.238;13.438;2023-04-23T14:26:46;17.30;99.90
11474;DHT22;5793;52.238;13.438;2023-04-23T14:29:22;17.30;99.90
11474;DHT22;5793;52.238;13.438;2023-04-23T14:31:50;17.50;99.90
11474;DHT22;5793;52.238;13.438;2023-04-23T14:34:18;17.50;99.90
11474;DHT22;5793;52.238;13.438;2023-04-23T14:36:46;17.50;99.90
11474;DHT22;5793;52.238;13.438;2023-04-23T14:39:15;17.50;99.90
11474;DHT22;5793;52.238;13.438;2023-04-23T14:41:43;17.50;99.90
11474;DHT22;5793;52.238;13.438;2023-04-23T14:44:12;17.60;99.90
11474;DHT22;5793;52.238;13.438;2023-04-23T14:46:40;17.60;99.90
11474;DHT22;5793;52.238;13.438;2023-04-23T14:49:07;17.60;99.90
11474;DHT22;5793;52.238;13.438;2023-04-23T14:51:35;17.60;99.90
11474;DHT22;5793;52.238;13.438;2023-04-23T14:54:04;17.70;99.90
11474;DHT22;5793;52.238;13.438;2023-04-23T14:56:32;17.90;99.90
11474;DHT22;5793;52.238;13.438;2023-04-23T14:59:00;17.70;99.90
11474;DHT22;5793;52.238;13.438;2023-04-23T15:01:29;17.80;99.90
11474;DHT22;5793;52.238;13.438;2023-04-23T15:03:57;17.80;99.90
11474;DHT22;5793;52.238;13.438;2023-04-23T15:06:26;17.90;99.90
11474;DHT22;5793;52.238;13.438;2023-04-23T15:08:53;17.90;99.90
11474;DHT22;5793;52.238;13.438;2023-04-23T15:11:21;17.90;99.90
11474;DHT22;5793;52.238;13.438;2023-04-23T15:13:55;17.90;99.90
11474;DHT22;5793;52.238;13.438;2023-04-23T15:16:25;17.80;99.90
11474;DHT22;5793;52.238;13.438;2023-04-23T15:19:16;17.80;99.90
11474;DHT22;5793;52.238;13.438;2023-04-23T15:21:44;17.90;99.90
11474;DHT22;5793;52.238;13.438;2023-04-23T15:24:13;17.80;99.90
11474;DHT22;5793;52.238;13.438;2023-04-23T15:26:41;17.80;99.90
11474;DHT22;5793;52.238;13.438;2023-04-23T15:29:09;17.60;99.90
11474;DHT22;5793;52.238;13.438;2023-04-23T15:31:39;17.40;99.90
11474;DHT22;5793;52.238;13.438;2023-04-23T15:34:08;17.30;99.90
11474;DHT22;5793;52.238;13.438;2023-04-23T15:36:38;17.20;99.90
11474;DHT22;5793;52.238;13.438;2023-04-23T15:39:07;17.50;99.90
11474;DHT22;5793;52.238;13.438;2023-04-23T15:41:35;17.80;99.90